Time;durP1;ratioP1;P1;durP2;ratioP2;P2;SDS_P1;SDS_P2;PMS_P1;PMS_P2;Temp;Humidity;BMP_temperature;BMP_pressure;BME280_temperature;BME280_humidity;BME280_pressure;Samples;Min_cycle;Max_cycle;Signal;HPM_P1;HPM_P2
2021/11/15 00:01:18;;;;;;;10.63;9.20;;;;;;;;;;5053703;28;20194;-76
2021/11/15 00:03:47;;;;;;;13.38;10.75;;;;;;;;;;5063718;28;20228;-76
2021/11/15 00:06:14;;;;;;;12.05;10.23;;;;;;;;;;5073189;28;20625;-75
2021/11/15 00:08:41;;;;;;;13.20;9.63;;;;;;;;;;5059686;28;20201;-76
2021/11/15 00:11:08;;;;;;;12.32;9.63;;;;;;;;;;5068615;28;20689;-76
2021/11/15 00:13:37;;;;;;;9.52;8.52;;;;;;;;;;5071962;28;20209;-76
2021/11/15 00:16:04;;;;;;;12.15;10.80;;;;;;;;;;5071088;28;20213;-76
2021/11/15 00:18:32;;;;;;;11.30;9.82;;;;;;;;;;5071662;28;20199;-76
2021/11/15 00:20:59;;;;;;;11.40;9.50;;;;;;;;;;5071007;28;20646;-76
2021/11/15 00:23:26;;;;;;;11.80;10.18;;;;;;;;;;5068269;28;20577;-77
2021/11/15 00:25:53;;;;;;;16.42;13.07;;;;;;;;;;5072850;28;20565;-76
2021/11/15 00:28:20;;;;;;;14.93;10.82;;;;;;;;;;5070115;28;20202;-76
2021/11/15 00:30:49;;;;;;;13.40;10.90;;;;;;;;;;5059475;28;20662;-76
2021/11/15 00:33:16;;;;;;;13.38;10.35;;;;;;;;;;5065636;28;20560;-75
2021/11/15 00:35:43;;;;;;;12.80;10.45;;;;;;;;;;5060840;28;20656;-76
2021/11/15 00:38:10;;;;;;;11.25;9.90;;;;;;;;;;5070006;28;20194;-76
2021/11/15 00:40:37;;;;;;;12.13;10.60;;;;;;;;;;5052736;28;20194;-77
2021/11/15 00:43:04;;;;;;;12.63;10.70;;;;;;;;;;5056166;28;20666;-77
2021/11/15 00:45:32;;;;;;;17.08;12.50;;;;;;;;;;5060666;28;20206;-77
2021/11/15 00:48:00;;;;;;;14.88;11.45;;;;;;;;;;5053559;28;20665;-77
2021/11/15 00:50:27;;;;;;;15.40;11.48;;;;;;;;;;5066079;28;20201;-77
2021/11/15 00:52:54;;;;;;;13.45;10.20;;;;;;;;;;5065171;28;20191;-77
2021/11/15 00:55:21;;;;;;;14.95;10.98;;;;;;;;;;5067318;28;20202;-79
2021/11/15 00:57:49;;;;;;;14.32;10.75;;;;;;;;;;5053435;28;20260;-77
2021/11/15 01:00:18;;;;;;;16.48;12.68;;;;;;;;;;5053984;28;20221;-77
2021/11/15 01:02:46;;;;;;;14.07;11.93;;;;;;;;;;5063744;28;20253;-77
2021/11/15 01:05:14;;;;;;;17.88;12.88;;;;;;;;;;5066315;28;20233;-75
2021/11/15 01:07:41;;;;;;;16.23;11.32;;;;;;;;;;5072878;28;20238;-76
2021/11/15 01:10:10;;;;;;;14.23;11.35;;;;;;;;;;5058968;28;20210;-76
2021/11/15 01:12:37;;;;;;;14.25;11.57;;;;;;;;;;5072944;28;20187;-75
2021/11/15 01:15:05;;;;;;;13.68;11.75;;;;;;;;;;5056689;28;20190;-75
2021/11/15 01:17:32;;;;;;;15.32;11.10;;;;;;;;;;5072442;28;20307;-75
2021/11/15 01:19:59;;;;;;;14.98;11.65;;;;;;;;;;5066472;28;20224;-75
2021/11/15 01:22:27;;;;;;;13.35;10.68;;;;;;;;;;5072893;28;20640;-76
2021/11/15 01:24:54;;;;;;;13.35;11.43;;;;;;;;;;5056393;28;20714;-75
2021/11/15 01:27:21;;;;;;;14.43;12.00;;;;;;;;;;5061621;28;20226;-75
2021/11/15 01:29:48;;;;;;;13.38;11.13;;;;;;;;;;5066124;28;20195;-75
2021/11/15 01:32:15;;;;;;;18.35;12.57;;;;;;;;;;5069694;28;20207;-74
2021/11/15 01:34:42;;;;;;;13.52;11.43;;;;;;;;;;5059847;28;20190;-75
2021/11/15 01:37:09;;;;;;;13.77;11.23;;;;;;;;;;5066992;28;20202;-75
2021/11/15 01:39:38;;;;;;;14.95;12.50;;;;;;;;;;5059954;28;20205;-75
2021/11/15 01:42:05;;;;;;;19.38;13.45;;;;;;;;;;5067567;28;20198;-75
2021/11/15 01:44:32;;;;;;;15.18;12.63;;;;;;;;;;5052601;28;20203;-75
2021/11/15 01:47:00;;;;;;;16.48;10.93;;;;;;;;;;5053569;28;20194;-74
2021/11/15 01:49:27;;;;;;;15.82;12.20;;;;;;;;;;5066571;28;20197;-76
2021/11/15 01:51:54;;;;;;;18.27;13.15;;;;;;;;;;5071865;28;20202;-74
2021/11/15 01:54:21;;;;;;;15.15;12.15;;;;;;;;;;5062373;28;20209;-74
2021/11/15 01:56:50;;;;;;;16.00;13.50;;;;;;;;;;5052495;28;20200;-74
2021/11/15 01:59:18;;;;;;;17.10;13.07;;;;;;;;;;5056707;28;20696;-74
2021/11/15 02:01:45;;;;;;;14.82;11.30;;;;;;;;;;5069197;28;20202;-75
2021/11/15 02:04:12;;;;;;;16.00;11.98;;;;;;;;;;5069383;28;20201;-74
2021/11/15 02:06:39;;;;;;;14.40;11.43;;;;;;;;;;5070717;28;20676;-74
2021/11/15 02:09:07;;;;;;;15.98;12.43;;;;;;;;;;5056769;28;20206;-76
2021/11/15 02:11:35;;;;;;;14.80;11.23;;;;;;;;;;5064837;28;20221;-74
2021/11/15 02:14:04;;;;;;;15.68;12.55;;;;;;;;;;5067354;28;20290;-75
2021/11/15 02:16:31;;;;;;;16.02;10.27;;;;;;;;;;5070037;28;20198;-75
2021/11/15 02:18:59;;;;;;;14.27;11.10;;;;;;;;;;5069940;28;20615;-74
2021/11/15 02:21:27;;;;;;;18.15;12.57;;;;;;;;;;5070960;28;20203;-74
2021/11/15 02:23:54;;;;;;;15.05;12.48;;;;;;;;;;5054554;28;20210;-74
2021/11/15 02:26:23;;;;;;;14.80;10.23;;;;;;;;;;5069741;28;20231;-74
2021/11/15 02:28:50;;;;;;;14.32;10.30;;;;;;;;;;5070230;28;20198;-76
2021/11/15 02:31:20;;;;;;;16.92;12.82;;;;;;;;;;5051283;28;20657;-75
2021/11/15 02:33:48;;;;;;;16.20;11.57;;;;;;;;;;5058811;28;20195;-76
2021/11/15 02:36:15;;;;;;;13.77;11.00;;;;;;;;;;5053110;28;20201;-74
2021/11/15 02:38:43;;;;;;;15.65;12.27;;;;;;;;;;5065468;28;20542;-75
2021/11/15 02:41:10;;;;;;;16.13;13.27;;;;;;;;;;5051180;28;20198;-75
2021/11/15 02:43:38;;;;;;;14.75;12.15;;;;;;;;;;5051462;28;20594;-74
2021/11/15 02:46:05;;;;;;;16.15;12.00;;;;;;;;;;5052020;28;20605;-74
2021/11/15 02:48:32;;;;;;;15.93;11.68;;;;;;;;;;5055537;28;20201;-74
2021/11/15 02:50:59;;;;;;;14.60;10.40;;;;;;;;;;5070943;28;20206;-74
2021/11/15 02:53:27;;;;;;;17.17;11.80;;;;;;;;;;5062298;28;20194;-75
2021/11/15 02:55:55;;;;;;;17.23;10.98;;;;;;;;;;5055059;28;20191;-75
2021/11/15 02:58:22;;;;;;;13.70;11.00;;;;;;;;;;5066218;28;20260;-75
2021/11/15 03:00:52;;;;;;;18.65;13.10;;;;;;;;;;5059061;28;20305;-74
2021/11/15 03:03:19;;;;;;;17.20;11.52;;;;;;;;;;5060286;28;20194;-74
2021/11/15 03:05:47;;;;;;;17.13;11.82;;;;;;;;;;5070772;28;20213;-78
2021/11/15 03:08:15;;;;;;;16.48;11.80;;;;;;;;;;5069777;28;20198;-78
2021/11/15 03:10:43;;;;;;;14.00;10.50;;;;;;;;;;5067961;28;20204;-78
2021/11/15 03:13:12;;;;;;;16.15;11.65;;;;;;;;;;5057422;28;20206;-78
2021/11/15 03:15:43;;;;;;;16.67;11.07;;;;;;;;;;5067123;28;20236;-77
2021/11/15 03:18:11;;;;;;;18.08;12.73;;;;;;;;;;5069600;28;20237;-77
2021/11/15 03:20:39;;;;;;;16.00;12.52;;;;;;;;;;5059324;28;20202;-79
2021/11/15 03:23:07;;;;;;;14.45;11.55;;;;;;;;;;5054614;28;20194;-77
2021/11/15 03:25:34;;;;;;;15.18;12.30;;;;;;;;;;5062800;28;20411;-76
2021/11/15 03:28:01;;;;;;;14.45;11.70;;;;;;;;;;5067905;28;20201;-75
2021/11/15 03:30:30;;;;;;;15.82;11.95;;;;;;;;;;5070704;28;20678;-76
2021/11/15 03:32:57;;;;;;;18.15;13.35;;;;;;;;;;5050066;28;20199;-76
2021/11/15 03:35:25;;;;;;;14.70;11.70;;;;;;;;;;5050913;28;20194;-76
2021/11/15 03:37:52;;;;;;;13.98;11.23;;;;;;;;;;5050196;28;20206;-74
2021/11/15 03:40:20;;;;;;;14.93;11.85;;;;;;;;;;5061968;28;20197;-74
2021/11/15 03:42:48;;;;;;;14.07;12.05;;;;;;;;;;5070657;28;20195;-74
2021/11/15 03:45:16;;;;;;;16.90;11.93;;;;;;;;;;5067273;28;20217;-74
2021/11/15 03:47:45;;;;;;;16.00;10.90;;;;;;;;;;5049174;28;20194;-75
2021/11/15 03:50:12;;;;;;;17.23;12.80;;;;;;;;;;5052258;28;20221;-75
2021/11/15 03:52:40;;;;;;;14.93;12.13;;;;;;;;;;5060039;28;20289;-74
2021/11/15 03:55:08;;;;;;;17.00;13.60;;;;;;;;;;5054957;28;20195;-74
2021/11/15 03:57:36;;;;;;;16.38;10.98;;;;;;;;;;5058609;28;20198;-75
2021/11/15 04:00:05;;;;;;;16.67;13.98;;;;;;;;;;5068552;28;20237;-77
2021/11/15 04:02:33;;;;;;;16.67;13.90;;;;;;;;;;5069625;28;20194;-75
2021/11/15 04:05:03;;;;;;;13.57;11.15;;;;;;;;;;5070937;28;20215;-75
2021/11/15 04:07:34;;;;;;;17.60;14.00;;;;;;;;;;5073397;28;20193;-75
2021/11/15 04:10:02;;;;;;;15.20;11.23;;;;;;;;;;5058671;28;20294;-75
2021/11/15 04:12:30;;;;;;;13.70;10.45;;;;;;;;;;5064343;28;20203;-76
2021/11/15 04:14:57;;;;;;;16.02;11.15;;;;;;;;;;5072074;28;20202;-75
2021/11/15 04:17:25;;;;;;;17.42;13.05;;;;;;;;;;5071706;28;20644;-73
2021/11/15 04:19:52;;;;;;;16.23;12.15;;;;;;;;;;5068307;28;20554;-74
2021/11/15 04:22:21;;;;;;;17.27;12.85;;;;;;;;;;5073692;28;20213;-75
2021/11/15 04:24:49;;;;;;;16.60;13.13;;;;;;;;;;5060241;28;20217;-75
2021/11/15 04:27:16;;;;;;;17.83;13.00;;;;;;;;;;5053871;28;20207;-74
2021/11/15 04:29:43;;;;;;;15.18;10.90;;;;;;;;;;5059888;28;20198;-77
2021/11/15 04:32:11;;;;;;;18.30;12.93;;;;;;;;;;5062503;28;20611;-74
2021/11/15 04:34:38;;;;;;;15.85;12.52;;;;;;;;;;5073485;28;20221;-75
2021/11/15 04:37:05;;;;;;;14.63;11.80;;;;;;;;;;5072460;28;20195;-76
2021/11/15 04:39:34;;;;;;;15.50;12.25;;;;;;;;;;5063403;28;20202;-75
2021/11/15 04:42:01;;;;;;;17.67;12.02;;;;;;;;;;5072592;28;20668;-75
2021/11/15 04:44:28;;;;;;;14.45;11.35;;;;;;;;;;5072560;28;20210;-76
2021/11/15 04:46:55;;;;;;;15.35;11.70;;;;;;;;;;5069844;28;20240;-75
2021/11/15 04:49:22;;;;;;;15.38;10.30;;;;;;;;;;5067810;28;20201;-75
2021/11/15 04:51:50;;;;;;;13.93;12.18;;;;;;;;;;5053425;28;20573;-74
2021/11/15 04:54:17;;;;;;;16.75;12.15;;;;;;;;;;5059326;28;20202;-76
2021/11/15 04:56:45;;;;;;;15.25;11.93;;;;;;;;;;5064215;28;20221;-75
2021/11/15 04:59:13;;;;;;;13.35;11.95;;;;;;;;;;5073604;28;20222;-78
2021/11/15 05:01:41;;;;;;;13.27;11.52;;;;;;;;;;5056885;28;20191;-75
2021/11/15 05:04:08;;;;;;;15.45;10.70;;;;;;;;;;5065815;28;20213;-76
2021/11/15 05:06:35;;;;;;;24.38;12.75;;;;;;;;;;5067657;28;20225;-76
2021/11/15 05:09:02;;;;;;;15.40;12.43;;;;;;;;;;5066799;28;20203;-75
2021/11/15 05:11:29;;;;;;;16.40;13.25;;;;;;;;;;5052838;28;20677;-75
2021/11/15 05:13:57;;;;;;;16.83;11.23;;;;;;;;;;5065226;28;20202;-75
2021/11/15 05:16:25;;;;;;;17.90;12.68;;;;;;;;;;5065236;28;20642;-76
2021/11/15 05:18:52;;;;;;;14.25;11.20;;;;;;;;;;5066706;28;20206;-76
2021/11/15 05:21:19;;;;;;;16.75;11.27;;;;;;;;;;5053303;28;20202;-75
2021/11/15 05:23:46;;;;;;;14.60;11.10;;;;;;;;;;5054309;28;20198;-76
2021/11/15 05:26:13;;;;;;;14.52;10.90;;;;;;;;;;5059175;28;20222;-76
2021/11/15 05:28:40;;;;;;;17.02;11.98;;;;;;;;;;5065017;28;20653;-76
2021/11/15 05:31:09;;;;;;;16.23;11.90;;;;;;;;;;5068453;28;20673;-75
2021/11/15 05:33:36;;;;;;;16.38;12.43;;;;;;;;;;5058111;28;20661;-76
2021/11/15 05:36:03;;;;;;;16.77;11.88;;;;;;;;;;5072585;28;20194;-75
2021/11/15 05:38:30;;;;;;;15.80;12.27;;;;;;;;;;5060239;28;20202;-74
2021/11/15 05:40:57;;;;;;;17.05;12.40;;;;;;;;;;5064243;28;20198;-76
2021/11/15 05:43:25;;;;;;;14.38;11.68;;;;;;;;;;5072136;28;20210;-76
2021/11/15 05:45:52;;;;;;;17.83;13.27;;;;;;;;;;5072666;28;20221;-75
2021/11/15 05:48:20;;;;;;;17.73;12.30;;;;;;;;;;5064014;28;20209;-76
2021/11/15 05:50:48;;;;;;;17.90;13.18;;;;;;;;;;5052718;28;20562;-74
2021/11/15 05:53:15;;;;;;;16.77;11.35;;;;;;;;;;5064951;28;20205;-76
2021/11/15 05:55:43;;;;;;;16.30;12.30;;;;;;;;;;5068261;28;20194;-73
2021/11/15 05:58:10;;;;;;;15.30;11.20;;;;;;;;;;5058964;28;20214;-75
2021/11/15 06:00:37;;;;;;;17.08;12.02;;;;;;;;;;5052394;28;20226;-75
2021/11/15 06:03:04;;;;;;;17.15;12.10;;;;;;;;;;5055215;28;20672;-76
2021/11/15 06:05:33;;;;;;;13.02;11.10;;;;;;;;;;5067496;28;20565;-77
2021/11/15 06:08:00;;;;;;;16.83;11.70;;;;;;;;;;5070441;28;20205;-76
2021/11/15 06:10:27;;;;;;;14.88;12.13;;;;;;;;;;5057841;28;20677;-76
2021/11/15 06:12:54;;;;;;;17.77;10.98;;;;;;;;;;5070809;28;20205;-75
2021/11/15 06:15:22;;;;;;;15.23;11.10;;;;;;;;;;5051950;28;20195;-76
2021/11/15 06:17:49;;;;;;;16.08;11.05;;;;;;;;;;5060920;28;20205;-74
2021/11/15 06:20:17;;;;;;;19.13;11.63;;;;;;;;;;5064846;28;20210;-75
2021/11/15 06:22:46;;;;;;;22.67;14.85;;;;;;;;;;5068394;28;20544;-75
2021/11/15 06:25:14;;;;;;;16.58;10.80;;;;;;;;;;5052411;28;20205;-75
2021/11/15 06:27:41;;;;;;;16.98;11.52;;;;;;;;;;5052033;28;20245;-75
2021/11/15 06:30:10;;;;;;;19.10;12.20;;;;;;;;;;5051520;28;20665;-76
2021/11/15 06:32:37;;;;;;;17.70;12.32;;;;;;;;;;5061579;28;20210;-75
2021/11/15 06:35:05;;;;;;;19.60;11.82;;;;;;;;;;5065222;28;20202;-75
2021/11/15 06:37:32;;;;;;;18.05;12.15;;;;;;;;;;5071862;28;20549;-75
2021/11/15 06:40:01;;;;;;;15.77;9.93;;;;;;;;;;5063215;28;20206;-75
2021/11/15 06:42:28;;;;;;;17.27;10.98;;;;;;;;;;5069969;28;20573;-75
2021/11/15 06:44:55;;;;;;;14.60;10.52;;;;;;;;;;5058164;28;20190;-75
2021/11/15 06:47:22;;;;;;;15.30;10.57;;;;;;;;;;5050604;28;20215;-75
2021/11/15 06:49:52;;;;;;;14.55;10.05;;;;;;;;;;5061538;28;20277;-74
2021/11/15 06:52:19;;;;;;;15.38;10.45;;;;;;;;;;5052915;28;20198;-75
2021/11/15 06:54:46;;;;;;;18.52;10.52;;;;;;;;;;5052035;28;20674;-74
2021/11/15 06:57:15;;;;;;;13.43;10.10;;;;;;;;;;5065835;28;20233;-75
2021/11/15 06:59:42;;;;;;;11.07;9.30;;;;;;;;;;5068614;28;20565;-75
2021/11/15 07:02:09;;;;;;;13.07;9.77;;;;;;;;;;5057964;28;20191;-75
2021/11/15 07:04:37;;;;;;;11.82;10.20;;;;;;;;;;5063817;28;20637;-76
2021/11/15 07:07:04;;;;;;;14.70;9.35;;;;;;;;;;5065349;28;20593;-74
2021/11/15 07:09:31;;;;;;;11.48;8.88;;;;;;;;;;5058584;28;20225;-75
2021/11/15 07:11:58;;;;;;;10.65;9.40;;;;;;;;;;5062868;28;20201;-75
2021/11/15 07:14:27;;;;;;;13.07;8.80;;;;;;;;;;5057964;28;20194;-74
2021/11/15 07:16:54;;;;;;;9.90;7.30;;;;;;;;;;5064538;28;20316;-74
2021/11/15 07:19:22;;;;;;;11.20;8.85;;;;;;;;;;5060322;28;20653;-75
2021/11/15 07:21:49;;;;;;;8.57;7.68;;;;;;;;;;5058380;28;20602;-77
2021/11/15 07:24:16;;;;;;;12.50;8.73;;;;;;;;;;5060907;28;20195;-76
2021/11/15 07:26:43;;;;;;;11.63;8.20;;;;;;;;;;5060281;28;20211;-76
2021/11/15 07:29:10;;;;;;;12.05;7.88;;;;;;;;;;5051528;28;20202;-75
2021/11/15 07:31:39;;;;;;;12.23;8.60;;;;;;;;;;5068098;28;20201;-75
2021/11/15 07:34:07;;;;;;;10.63;6.97;;;;;;;;;;5053692;28;20291;-74
2021/11/15 07:36:35;;;;;;;10.63;7.70;;;;;;;;;;5065993;28;20645;-75
2021/11/15 07:39:02;;;;;;;12.10;8.00;;;;;;;;;;5068245;28;20260;-75
2021/11/15 07:41:29;;;;;;;10.73;7.88;;;;;;;;;;5058750;28;20554;-75
2021/11/15 07:43:56;;;;;;;8.20;6.55;;;;;;;;;;5057563;28;20198;-75
2021/11/15 07:46:24;;;;;;;9.82;7.10;;;;;;;;;;5067945;28;20217;-76
2021/11/15 07:48:52;;;;;;;7.60;5.82;;;;;;;;;;5064588;28;20230;-76
2021/11/15 07:51:19;;;;;;;9.88;7.07;;;;;;;;;;5067826;28;20221;-75
2021/11/15 07:53:46;;;;;;;11.60;8.00;;;;;;;;;;5069430;28;20206;-74
2021/11/15 07:56:14;;;;;;;9.05;6.53;;;;;;;;;;5071817;28;20193;-75
2021/11/15 07:58:42;;;;;;;11.90;7.35;;;;;;;;;;5074010;28;20206;-75
2021/11/15 08:01:09;;;;;;;10.00;6.63;;;;;;;;;;5067910;28;20198;-74
2021/11/15 08:03:39;;;;;;;9.48;6.80;;;;;;;;;;5059248;28;20191;-75
2021/11/15 08:06:10;;;;;;;8.38;6.57;;;;;;;;;;5071971;28;20204;-74
2021/11/15 08:08:37;;;;;;;11.18;7.60;;;;;;;;;;5054300;28;20281;-76
2021/11/15 08:11:05;;;;;;;11.68;6.72;;;;;;;;;;5062957;28;20206;-76
2021/11/15 08:13:32;;;;;;;10.63;7.00;;;;;;;;;;5069444;28;20604;-76
2021/11/15 08:15:59;;;;;;;11.30;7.40;;;;;;;;;;5062404;28;20194;-74
2021/11/15 08:18:26;;;;;;;9.15;7.30;;;;;;;;;;5061030;28;20289;-75
2021/11/15 08:20:54;;;;;;;9.02;6.13;;;;;;;;;;5070327;28;20209;-75
2021/11/15 08:23:22;;;;;;;9.15;7.28;;;;;;;;;;5062826;28;20716;-75
2021/11/15 08:26:20;;;;;;;10.25;6.95;;;;;;;;;;5059474;28;20217;-74
2021/11/15 08:28:47;;;;;;;11.55;7.43;;;;;;;;;;5003803;28;20200;-74
2021/11/15 08:31:14;;;;;;;9.88;6.60;;;;;;;;;;5055819;28;20198;-75
2021/11/15 08:33:41;;;;;;;8.15;6.60;;;;;;;;;;5069876;28;20616;-75
2021/11/15 08:36:08;;;;;;;9.27;5.93;;;;;;;;;;5072530;28;20680;-74
2021/11/15 08:38:50;;;;;;;9.55;6.38;;;;;;;;;;5069916;28;20202;-74
2021/11/15 08:41:21;;;;;;;10.82;6.82;;;;;;;;;;5053531;28;20199;-75
2021/11/15 08:43:48;;;;;;;11.55;8.55;;;;;;;;;;5071139;28;20538;-74
2021/11/15 08:46:16;;;;;;;11.88;8.55;;;;;;;;;;5069270;28;20549;-75
2021/11/15 08:48:44;;;;;;;10.93;6.60;;;;;;;;;;5052807;28;20195;-74
2021/11/15 08:51:12;;;;;;;8.05;5.63;;;;;;;;;;5069948;28;20625;-74
2021/11/15 08:53:39;;;;;;;11.27;7.93;;;;;;;;;;5054094;28;20195;-75
2021/11/15 08:56:07;;;;;;;10.32;7.30;;;;;;;;;;5054373;28;20557;-76
2021/11/15 08:58:36;;;;;;;13.13;7.88;;;;;;;;;;5063779;28;21230;-75
2021/11/15 09:01:03;;;;;;;9.60;7.13;;;;;;;;;;5066804;28;20186;-75
2021/11/15 09:03:30;;;;;;;11.55;7.43;;;;;;;;;;5070785;28;20201;-75
2021/11/15 09:05:57;;;;;;;13.77;7.75;;;;;;;;;;5060935;28;20662;-75
2021/11/15 09:08:24;;;;;;;12.35;7.10;;;;;;;;;;5058905;28;20504;-74
2021/11/15 09:10:52;;;;;;;12.10;8.00;;;;;;;;;;5069771;28;20205;-74
2021/11/15 09:13:19;;;;;;;13.10;8.23;;;;;;;;;;5071684;28;20582;-76
2021/11/15 09:15:47;;;;;;;9.13;5.95;;;;;;;;;;5059747;28;20195;-74
2021/11/15 09:18:14;;;;;;;13.52;7.82;;;;;;;;;;5068734;28;20194;-74
2021/11/15 09:20:42;;;;;;;11.70;7.28;;;;;;;;;;5061415;28;20309;-74
2021/11/15 09:23:09;;;;;;;10.50;7.95;;;;;;;;;;5072715;28;20201;-74
2021/11/15 09:25:36;;;;;;;14.65;8.90;;;;;;;;;;5068886;28;20203;-74
2021/11/15 09:28:04;;;;;;;10.05;7.15;;;;;;;;;;5064873;28;20225;-74
2021/11/15 09:30:31;;;;;;;12.23;8.73;;;;;;;;;;5062811;28;20190;-73
2021/11/15 09:32:59;;;;;;;10.90;7.07;;;;;;;;;;5071263;28;20202;-74
2021/11/15 09:35:26;;;;;;;9.35;7.20;;;;;;;;;;5072829;28;20213;-75
2021/11/15 09:37:53;;;;;;;10.68;7.10;;;;;;;;;;5066493;28;20222;-74
2021/11/15 09:40:20;;;;;;;9.77;7.68;;;;;;;;;;5060212;28;20205;-74
2021/11/15 09:42:49;;;;;;;13.38;7.85;;;;;;;;;;5072784;28;20212;-75
2021/11/15 09:45:16;;;;;;;11.60;8.00;;;;;;;;;;5072678;28;20665;-74
2021/11/15 09:47:44;;;;;;;9.60;7.35;;;;;;;;;;5068265;28;20219;-76
2021/11/15 09:50:14;;;;;;;11.00;7.10;;;;;;;;;;5052735;28;20669;-74
2021/11/15 09:52:41;;;;;;;12.60;8.35;;;;;;;;;;5059426;28;20281;-75
2021/11/15 09:55:08;;;;;;;9.10;6.55;;;;;;;;;;5067511;28;20202;-75
2021/11/15 09:57:37;;;;;;;12.68;7.55;;;;;;;;;;5065651;28;20225;-74
2021/11/15 10:00:05;;;;;;;7.95;6.20;;;;;;;;;;5068424;28;20730;-75
2021/11/15 10:02:32;;;;;;;8.75;6.63;;;;;;;;;;5061554;28;20206;-74
2021/11/15 10:04:59;;;;;;;9.52;6.60;;;;;;;;;;5063879;28;20206;-74
2021/11/15 10:07:38;;;;;;;10.95;7.20;;;;;;;;;;5062032;28;20214;-75
2021/11/15 10:10:20;;;;;;;9.07;7.28;;;;;;;;;;5064407;28;20293;-75
2021/11/15 10:13:02;;;;;;;8.90;7.25;;;;;;;;;;5069758;28;20213;-73
2021/11/15 10:15:29;;;;;;;11.07;7.82;;;;;;;;;;5070422;28;20220;-74
2021/11/15 10:17:56;;;;;;;13.55;8.68;;;;;;;;;;5055680;28;20210;-76
2021/11/15 10:20:23;;;;;;;13.13;8.00;;;;;;;;;;5056451;28;20204;-74
2021/11/15 10:22:51;;;;;;;10.00;7.85;;;;;;;;;;5065915;28;20281;-73
2021/11/15 10:25:31;;;;;;;12.15;7.35;;;;;;;;;;5061497;28;20671;-75
2021/11/15 10:28:06;;;;;;;12.38;7.50;;;;;;;;;;5065335;28;20611;-73
2021/11/15 10:30:35;;;;;;;11.70;8.02;;;;;;;;;;5065452;28;20252;-74
2021/11/15 10:33:07;;;;;;;9.45;7.00;;;;;;;;;;5052777;28;20207;-76
2021/11/15 10:35:40;;;;;;;10.90;8.35;;;;;;;;;;5060184;28;20611;-74
2021/11/15 10:38:09;;;;;;;13.40;8.23;;;;;;;;;;5068126;28;20194;-74
2021/11/15 10:40:37;;;;;;;12.23;7.38;;;;;;;;;;5059334;28;20657;-75
2021/11/15 10:43:08;;;;;;;11.40;7.97;;;;;;;;;;5071296;28;20224;-76
2021/11/15 10:45:38;;;;;;;12.65;8.68;;;;;;;;;;5060327;28;20657;-74
2021/11/15 10:48:09;;;;;;;9.48;7.47;;;;;;;;;;5068042;28;20305;-74
2021/11/15 10:50:44;;;;;;;13.65;9.18;;;;;;;;;;5055378;28;20195;-74
2021/11/15 10:53:16;;;;;;;9.00;7.30;;;;;;;;;;5063746;28;20314;-77
2021/11/15 10:55:46;;;;;;;12.05;8.55;;;;;;;;;;5060672;28;20194;-75
2021/11/15 10:58:15;;;;;;;10.75;8.00;;;;;;;;;;5071128;28;20217;-75
2021/11/15 11:00:50;;;;;;;8.88;7.07;;;;;;;;;;5064309;28;20214;-75
2021/11/15 11:03:20;;;;;;;12.65;9.07;;;;;;;;;;5057900;28;20197;-74
2021/11/15 11:05:48;;;;;;;11.32;7.75;;;;;;;;;;5067464;28;20220;-74
2021/11/15 11:08:18;;;;;;;11.18;7.80;;;;;;;;;;5070229;28;20214;-75
2021/11/15 11:10:50;;;;;;;10.80;7.88;;;;;;;;;;5069957;28;20530;-74
2021/11/15 11:13:19;;;;;;;10.38;6.93;;;;;;;;;;5066560;28;20661;-74
2021/11/15 11:15:48;;;;;;;13.10;7.65;;;;;;;;;;5062789;28;20716;-74
2021/11/15 11:18:17;;;;;;;10.73;8.30;;;;;;;;;;5067858;28;20255;-74
2021/11/15 11:23:46;;;;;;;11.43;8.82;;;;;;;;;;5068213;28;20202;-73
2021/11/15 11:26:14;;;;;;;8.55;6.70;;;;;;;;;;5053587;28;20208;-75
2021/11/15 11:28:43;;;;;;;8.80;6.78;;;;;;;;;;5062493;28;20214;-75
2021/11/15 11:31:13;;;;;;;11.38;7.38;;;;;;;;;;5068378;28;20199;-74
2021/11/15 11:33:40;;;;;;;10.10;7.85;;;;;;;;;;5066361;28;20259;-73
2021/11/15 11:36:08;;;;;;;11.02;8.18;;;;;;;;;;5058277;28;20205;-75
2021/11/15 11:38:37;;;;;;;11.43;8.20;;;;;;;;;;5067708;28;20230;-72
2021/11/15 11:41:04;;;;;;;9.68;7.47;;;;;;;;;;5058204;28;20221;-71
2021/11/15 11:43:32;;;;;;;9.18;7.15;;;;;;;;;;5057342;28;20209;-72
2021/11/15 11:45:59;;;;;;;8.85;6.40;;;;;;;;;;5068996;28;20198;-74
2021/11/15 11:48:27;;;;;;;9.25;7.05;;;;;;;;;;5067951;28;20218;-73
2021/11/15 11:50:55;;;;;;;9.40;7.35;;;;;;;;;;5051472;28;20217;-75
2021/11/15 11:53:23;;;;;;;12.35;8.80;;;;;;;;;;5060016;28;20213;-76
2021/11/15 11:55:52;;;;;;;10.95;8.52;;;;;;;;;;5051457;28;20215;-75
2021/11/15 11:58:20;;;;;;;11.30;7.70;;;;;;;;;;5066465;28;20495;-74
2021/11/15 12:00:47;;;;;;;10.32;6.55;;;;;;;;;;5068325;28;20225;-75
2021/11/15 12:03:14;;;;;;;14.38;7.65;;;;;;;;;;5068075;28;20229;-75
2021/11/15 12:05:41;;;;;;;12.48;6.72;;;;;;;;;;5059437;28;20198;-75
2021/11/15 12:08:09;;;;;;;11.13;6.88;;;;;;;;;;5070306;28;20695;-74
2021/11/15 12:10:40;;;;;;;14.32;8.85;;;;;;;;;;5050922;28;20210;-76
2021/11/15 12:13:09;;;;;;;14.43;8.68;;;;;;;;;;5065110;28;20198;-75
2021/11/15 12:15:42;;;;;;;9.00;6.85;;;;;;;;;;5051761;28;20191;-76
2021/11/15 12:18:11;;;;;;;13.35;9.15;;;;;;;;;;5057864;28;20191;-75
2021/11/15 12:20:53;;;;;;;11.15;7.65;;;;;;;;;;5065823;28;20611;-77
2021/11/15 12:23:20;;;;;;;11.93;8.05;;;;;;;;;;5053051;28;20194;-75
2021/11/15 12:26:00;;;;;;;10.93;8.45;;;;;;;;;;5062016;28;20268;-75
2021/11/15 12:28:29;;;;;;;12.40;8.30;;;;;;;;;;5064905;28;20577;-76
2021/11/15 12:30:58;;;;;;;12.45;7.97;;;;;;;;;;5065809;28;20190;-76
2021/11/15 12:33:26;;;;;;;12.98;7.97;;;;;;;;;;5059476;28;20203;-75
2021/11/15 12:35:54;;;;;;;11.75;7.68;;;;;;;;;;5058449;28;20206;-75
2021/11/15 12:38:39;;;;;;;11.38;8.48;;;;;;;;;;5066263;28;20206;-75
2021/11/15 12:41:32;;;;;;;14.02;7.68;;;;;;;;;;5071663;28;20562;-75
2021/11/15 12:44:18;;;;;;;13.10;8.43;;;;;;;;;;5073551;28;20557;-75
2021/11/15 12:46:51;;;;;;;14.85;9.27;;;;;;;;;;5060098;28;20207;-75
2021/11/15 12:49:19;;;;;;;16.70;11.10;;;;;;;;;;5054063;28;20211;-75
2021/11/15 12:51:50;;;;;;;22.25;13.02;;;;;;;;;;5068755;28;20664;-74
2021/11/15 12:54:17;;;;;;;18.00;11.88;;;;;;;;;;5074357;28;20841;-75
2021/11/15 12:56:44;;;;;;;17.20;11.95;;;;;;;;;;5065075;28;20609;-74
2021/11/15 12:59:11;;;;;;;18.52;12.48;;;;;;;;;;5068320;28;20215;-76
2021/11/15 13:01:41;;;;;;;16.58;10.85;;;;;;;;;;5064021;28;20295;-73
2021/11/15 13:04:09;;;;;;;15.38;9.77;;;;;;;;;;5058953;28;20636;-75
2021/11/15 13:06:36;;;;;;;15.93;11.27;;;;;;;;;;5068111;28;20213;-74
2021/11/15 13:09:03;;;;;;;16.25;10.85;;;;;;;;;;5067371;28;20230;-75
2021/11/15 13:11:31;;;;;;;16.55;10.40;;;;;;;;;;5060304;28;20202;-74
2021/11/15 13:13:58;;;;;;;17.45;10.30;;;;;;;;;;5061507;28;20209;-75
2021/11/15 13:16:25;;;;;;;16.17;11.10;;;;;;;;;;5066204;28;20201;-74
2021/11/15 13:18:52;;;;;;;15.02;9.25;;;;;;;;;;5064294;28;20248;-75
2021/11/15 13:21:20;;;;;;;16.92;9.98;;;;;;;;;;5069945;28;20540;-77
2021/11/15 13:23:47;;;;;;;17.27;10.35;;;;;;;;;;5059378;28;20195;-75
2021/11/15 13:26:15;;;;;;;16.70;11.20;;;;;;;;;;5064502;28;20209;-73
2021/11/15 13:28:42;;;;;;;16.95;9.90;;;;;;;;;;5053849;28;20577;-75
2021/11/15 13:31:09;;;;;;;15.02;10.00;;;;;;;;;;5069974;28;20201;-73
2021/11/15 13:33:37;;;;;;;17.45;11.73;;;;;;;;;;5066084;28;20588;-74
2021/11/15 13:36:05;;;;;;;15.48;9.75;;;;;;;;;;5070429;28;20297;-74
2021/11/15 13:38:33;;;;;;;14.18;11.25;;;;;;;;;;5061927;28;20237;-74
2021/11/15 13:41:00;;;;;;;19.23;11.27;;;;;;;;;;5080902;28;20206;-74
2021/11/15 13:43:28;;;;;;;15.25;11.95;;;;;;;;;;5084098;28;20232;-74
2021/11/15 13:45:56;;;;;;;14.32;10.65;;;;;;;;;;5074886;28;20206;-74
2021/11/15 13:48:24;;;;;;;12.18;10.60;;;;;;;;;;5065341;28;20225;-73
2021/11/15 13:50:51;;;;;;;13.45;9.75;;;;;;;;;;5072013;28;20199;-73
2021/11/15 13:53:18;;;;;;;14.30;9.07;;;;;;;;;;5071445;28;20202;-74
2021/11/15 13:55:47;;;;;;;14.20;10.38;;;;;;;;;;5072077;28;20201;-73
2021/11/15 13:58:14;;;;;;;16.05;10.80;;;;;;;;;;5070778;28;20198;-77
2021/11/15 14:00:42;;;;;;;14.32;11.02;;;;;;;;;;5069019;28;20241;-74
2021/11/15 14:03:09;;;;;;;15.90;10.23;;;;;;;;;;5061017;28;20202;-74
2021/11/15 14:05:36;;;;;;;15.68;11.45;;;;;;;;;;5066751;28;20565;-75
2021/11/15 14:08:04;;;;;;;18.40;12.68;;;;;;;;;;5062626;28;20206;-75
2021/11/15 14:10:31;;;;;;;14.80;11.55;;;;;;;;;;5062684;28;20198;-73
2021/11/15 14:13:00;;;;;;;17.52;12.93;;;;;;;;;;5052544;28;20560;-76
2021/11/15 14:15:27;;;;;;;16.52;12.30;;;;;;;;;;5055643;28;20226;-74
2021/11/15 14:17:54;;;;;;;17.08;12.05;;;;;;;;;;5055738;28;20654;-73
2021/11/15 14:20:22;;;;;;;16.58;11.25;;;;;;;;;;5065772;28;20673;-74
2021/11/15 14:22:49;;;;;;;17.70;12.63;;;;;;;;;;5051757;28;20302;-75
2021/11/15 14:25:17;;;;;;;15.10;12.40;;;;;;;;;;5050623;28;20272;-76
2021/11/15 14:27:44;;;;;;;12.82;10.50;;;;;;;;;;5051000;28;20709;-73
2021/11/15 14:30:13;;;;;;;15.50;11.88;;;;;;;;;;5060212;28;20577;-74
2021/11/15 14:32:40;;;;;;;14.32;11.13;;;;;;;;;;5064571;28;20224;-73